Time;durP1;ratioP1;P1;durP2;ratioP2;P2;SDS_P1;SDS_P2;PMS_P1;PMS_P2;Temp;Humidity;BMP_temperature;BMP_pressure;BME280_temperature;BME280_humidity;BME280_pressure;Samples;Min_cycle;Max_cycle;Signal;HPM_P1;HPM_P2
2022/03/27 00:00:15;;;;;;;5.87;4.43;;;10.30;1.00;;;;;;5071130;28;20210;-72
2022/03/27 00:02:43;;;;;;;4.43;3.63;;;10.20;1.00;;;;;;5070535;28;20705;-72
2022/03/27 00:05:11;;;;;;;4.47;3.90;;;10.30;1.00;;;;;;5070542;28;20202;-73
2022/03/27 00:07:38;;;;;;;5.43;4.07;;;10.30;1.00;;;;;;5070822;28;20202;-73
2022/03/27 00:10:06;;;;;;;9.17;4.33;;;10.30;1.00;;;;;;5070945;28;20206;-73
2022/03/27 00:12:33;;;;;;;6.60;3.73;;;10.10;1.00;;;;;;5070495;28;20206;-73
2022/03/27 00:15:01;;;;;;;5.20;4.00;;;10.00;1.00;;;;;;5071009;28;20850;-73
2022/03/27 00:17:32;;;;;;;6.60;4.40;;;10.00;1.00;;;;;;5071022;28;20206;-74
2022/03/27 00:20:00;;;;;;;4.73;3.97;;;10.00;1.00;;;;;;5070995;28;20289;-72
2022/03/27 00:22:27;;;;;;;6.13;3.97;;;10.00;1.00;;;;;;5071074;28;20604;-72
2022/03/27 00:24:54;;;;;;;6.63;4.20;;;9.80;1.00;;;;;;5070567;28;20202;-73
2022/03/27 00:27:21;;;;;;;7.20;4.60;;;9.90;1.00;;;;;;5070852;28;20198;-72
2022/03/27 00:29:49;;;;;;;6.17;4.83;;;9.80;1.00;;;;;;5070457;28;20210;-72
2022/03/27 00:32:16;;;;;;;4.77;4.10;;;9.80;1.00;;;;;;5070837;28;20206;-72
2022/03/27 00:34:44;;;;;;;5.37;4.33;;;9.80;1.00;;;;;;5070063;28;20233;-73
2022/03/27 00:37:12;;;;;;;5.50;4.47;;;9.90;1.00;;;;;;5070886;28;20202;-74
2022/03/27 00:39:39;;;;;;;5.87;4.27;;;10.00;1.00;;;;;;5070463;28;20206;-74
2022/03/27 00:42:07;;;;;;;4.97;4.47;;;10.00;1.00;;;;;;5070420;28;20636;-73
2022/03/27 00:44:36;;;;;;;7.73;4.60;;;10.00;1.00;;;;;;5070706;28;20288;-73
2022/03/27 00:47:03;;;;;;;5.00;4.30;;;10.00;1.00;;;;;;5070575;28;20202;-73
2022/03/27 00:49:30;;;;;;;4.53;4.00;;;10.00;1.00;;;;;;5070156;28;20212;-74
2022/03/27 00:51:59;;;;;;;7.77;4.13;;;10.00;1.00;;;;;;5070544;28;20210;-72
2022/03/27 00:54:26;;;;;;;7.23;4.60;;;10.00;1.00;;;;;;5070745;28;20713;-72
2022/03/27 00:56:53;;;;;;;4.90;4.30;;;10.10;1.00;;;;;;5070086;28;20670;-72
2022/03/27 00:59:20;;;;;;;7.80;3.73;;;10.10;1.00;;;;;;5070424;28;20279;-72
2022/03/27 01:01:47;;;;;;;7.17;4.67;;;10.10;1.00;;;;;;5070316;28;20240;-73
2022/03/27 01:04:14;;;;;;;3.83;3.43;;;10.20;1.00;;;;;;5070228;28;20335;-73
2022/03/27 01:06:43;;;;;;;4.93;3.97;;;10.30;1.00;;;;;;5072574;28;20206;-73
2022/03/27 01:12:12;;;;;;;5.70;4.83;;;10.10;1.00;;;;;;5074163;28;20205;-74
2022/03/27 01:14:39;;;;;;;5.83;4.30;;;10.30;1.00;;;;;;5073857;28;20202;-73
2022/03/27 01:17:08;;;;;;;6.40;4.63;;;10.20;1.00;;;;;;5074147;28;20267;-73
2022/03/27 01:19:36;;;;;;;5.23;4.43;;;10.20;1.00;;;;;;5073543;28;20640;-73
2022/03/27 01:22:05;;;;;;;6.53;4.57;;;10.10;1.00;;;;;;5073801;28;20291;-73
2022/03/27 01:24:32;;;;;;;5.57;5.03;;;10.20;1.00;;;;;;5074300;28;20267;-73
2022/03/27 01:26:59;;;;;;;5.40;4.33;;;10.30;1.00;;;;;;5074482;28;20202;-74
2022/03/27 01:29:26;;;;;;;6.70;4.80;;;10.20;1.00;;;;;;5074359;28;20210;-74
2022/03/27 01:31:53;;;;;;;6.87;4.53;;;10.20;1.00;;;;;;5073104;28;20675;-75
2022/03/27 01:34:20;;;;;;;7.73;3.93;;;10.40;1.00;;;;;;5073864;28;20225;-74
2022/03/27 01:36:47;;;;;;;8.87;5.00;;;10.30;1.00;;;;;;5073215;28;20626;-75
2022/03/27 01:39:18;;;;;;;5.47;4.10;;;10.20;1.00;;;;;;5073915;28;20197;-73
2022/03/27 01:41:45;;;;;;;5.70;4.43;;;10.50;1.00;;;;;;5073186;28;20610;-75
2022/03/27 01:44:16;;;;;;;6.90;4.70;;;10.40;1.00;;;;;;5073578;28;20198;-74
2022/03/27 01:46:44;;;;;;;5.10;4.60;;;10.50;1.00;;;;;;5073172;28;20581;-73
2022/03/27 01:49:13;;;;;;;7.73;4.70;;;10.40;1.00;;;;;;5073578;28;20207;-74
2022/03/27 01:51:42;;;;;;;6.87;4.37;;;10.30;1.00;;;;;;5072793;28;20287;-74
2022/03/27 01:54:10;;;;;;;4.70;3.47;;;10.50;1.00;;;;;;5073446;28;20617;-74
2022/03/27 01:56:38;;;;;;;8.23;4.50;;;10.60;1.00;;;;;;5072943;28;20202;-74
2022/03/27 01:59:06;;;;;;;5.20;4.27;;;10.60;1.00;;;;;;5073302;28;20646;-74
2022/03/27 02:01:34;;;;;;;8.53;4.50;;;10.50;1.00;;;;;;5072594;28;20271;-74
2022/03/27 02:04:01;;;;;;;5.87;3.57;;;10.40;1.00;;;;;;5073220;28;20210;-74
2022/03/27 02:06:28;;;;;;;6.03;4.50;;;10.40;1.00;;;;;;5073504;28;20210;-73
2022/03/27 02:08:55;;;;;;;4.57;3.73;;;10.50;1.00;;;;;;5073261;28;20208;-72
2022/03/27 02:11:23;;;;;;;7.27;4.17;;;10.40;1.00;;;;;;5073121;28;20605;-72
2022/03/27 02:13:51;;;;;;;7.20;5.00;;;10.40;1.00;;;;;;5072735;28;20275;-72
2022/03/27 02:16:18;;;;;;;7.97;5.67;;;10.30;1.00;;;;;;5072791;28;20289;-73
2022/03/27 02:18:45;;;;;;;6.03;4.83;;;10.40;1.00;;;;;;5071472;28;20252;-73
2022/03/27 02:21:12;;;;;;;7.90;5.37;;;10.40;1.00;;;;;;5073149;28;20225;-73
2022/03/27 02:23:40;;;;;;;5.87;3.93;;;10.30;1.00;;;;;;5072718;28;20206;-73
2022/03/27 02:26:07;;;;;;;6.73;4.30;;;10.20;1.00;;;;;;5072914;28;20263;-73
2022/03/27 02:28:34;;;;;;;11.77;4.57;;;10.10;1.00;;;;;;5072424;28;20210;-73
2022/03/27 02:31:02;;;;;;;6.97;4.10;;;10.10;1.00;;;;;;5072356;28;20206;-74
2022/03/27 02:33:30;;;;;;;7.30;4.30;;;10.10;1.00;;;;;;5072914;28;20210;-74
2022/03/27 02:35:57;;;;;;;4.90;4.40;;;10.10;1.00;;;;;;5072501;28;20294;-75
2022/03/27 02:38:24;;;;;;;6.77;4.97;;;10.00;1.00;;;;;;5072778;28;20276;-73
2022/03/27 02:40:51;;;;;;;5.90;4.30;;;9.90;1.00;;;;;;5072307;28;20226;-71
2022/03/27 02:43:18;;;;;;;6.10;4.00;;;9.90;1.00;;;;;;5072257;28;20275;-73
2022/03/27 02:45:45;;;;;;;6.77;3.90;;;9.80;1.00;;;;;;5071804;28;20651;-72
2022/03/27 02:48:13;;;;;;;8.53;4.27;;;9.70;1.00;;;;;;5072523;28;20210;-72
2022/03/27 02:50:43;;;;;;;4.57;4.17;;;9.60;1.00;;;;;;5072059;28;20210;-72
2022/03/27 02:53:10;;;;;;;8.00;5.20;;;9.70;1.00;;;;;;5072425;28;20198;-72
2022/03/27 02:55:37;;;;;;;8.80;4.27;;;9.60;1.00;;;;;;5071633;28;20206;-72
2022/03/27 02:58:04;;;;;;;8.37;4.80;;;9.60;1.00;;;;;;5072013;28;20557;-71
2022/03/27 03:00:32;;;;;;;7.73;4.93;;;9.50;1.00;;;;;;5072064;28;20681;-72
2022/03/27 03:02:59;;;;;;;5.80;3.90;;;9.40;1.00;;;;;;5072318;28;20276;-72
2022/03/27 03:05:28;;;;;;;5.73;4.30;;;9.30;1.00;;;;;;5072405;28;20688;-72
2022/03/27 03:07:55;;;;;;;4.67;4.27;;;9.20;1.00;;;;;;5071535;28;20202;-72
2022/03/27 03:10:23;;;;;;;5.17;3.77;;;9.10;1.00;;;;;;5071935;28;20198;-71
2022/03/27 03:12:50;;;;;;;4.83;3.97;;;9.20;1.00;;;;;;5071425;28;20633;-70
2022/03/27 03:15:17;;;;;;;12.23;4.67;;;9.30;1.00;;;;;;5072035;28;20202;-71
2022/03/27 03:17:44;;;;;;;5.83;4.17;;;9.20;1.00;;;;;;5071456;28;20617;-71
2022/03/27 03:20:12;;;;;;;6.97;4.10;;;9.20;1.00;;;;;;5071664;28;20202;-71
2022/03/27 03:22:41;;;;;;;7.57;4.33;;;9.00;1.00;;;;;;5071253;28;20256;-71
2022/03/27 03:25:09;;;;;;;7.37;4.47;;;8.90;1.00;;;;;;5072123;28;20248;-71
2022/03/27 03:27:36;;;;;;;10.17;5.13;;;8.90;1.00;;;;;;5071359;28;20271;-70
2022/03/27 03:30:05;;;;;;;6.07;3.73;;;9.00;1.00;;;;;;5071441;28;20263;-71
2022/03/27 03:32:34;;;;;;;7.03;4.73;;;8.90;1.00;;;;;;5071580;28;20213;-71
2022/03/27 03:35:01;;;;;;;5.97;4.50;;;8.80;1.00;;;;;;5071501;28;20657;-72
2022/03/27 03:37:28;;;;;;;5.03;3.80;;;8.90;1.00;;;;;;5071632;28;20566;-72
2022/03/27 03:39:56;;;;;;;7.27;3.70;;;9.00;1.00;;;;;;5071464;28;20205;-71
2022/03/27 03:42:24;;;;;;;4.90;4.33;;;8.90;1.00;;;;;;5070995;28;20641;-71
2022/03/27 03:44:51;;;;;;;5.37;4.43;;;8.80;1.00;;;;;;5070958;28;20209;-72
2022/03/27 03:47:19;;;;;;;9.53;5.07;;;8.90;1.00;;;;;;5071265;28;20669;-71
2022/03/27 03:49:46;;;;;;;6.53;4.17;;;8.80;1.00;;;;;;5070799;28;20674;-71
2022/03/27 03:52:13;;;;;;;6.87;4.73;;;8.80;1.00;;;;;;5071669;28;20212;-72
2022/03/27 03:54:40;;;;;;;7.67;4.23;;;8.70;1.00;;;;;;5070876;28;20259;-72
2022/03/27 03:57:09;;;;;;;8.40;4.87;;;8.70;1.00;;;;;;5070899;28;20202;-72
2022/03/27 03:59:36;;;;;;;7.70;4.97;;;8.50;1.00;;;;;;5070837;28;20202;-72
2022/03/27 04:02:05;;;;;;;6.47;4.87;;;8.50;1.00;;;;;;5071053;28;20624;-73
2022/03/27 04:04:34;;;;;;;6.60;3.97;;;8.30;1.00;;;;;;5071020;28;20212;-72
2022/03/27 04:07:01;;;;;;;5.30;4.77;;;8.20;1.00;;;;;;5071256;28;20294;-72
2022/03/27 04:09:29;;;;;;;7.67;4.90;;;8.20;1.00;;;;;;5071437;28;20214;-72
2022/03/27 04:11:57;;;;;;;6.80;4.10;;;8.30;1.00;;;;;;5070558;28;20731;-72
2022/03/27 04:14:25;;;;;;;7.33;5.43;;;8.40;1.00;;;;;;5071037;28;20202;-72
2022/03/27 04:16:52;;;;;;;6.80;4.57;;;8.50;1.00;;;;;;5070541;28;20671;-72
2022/03/27 04:19:19;;;;;;;6.47;4.03;;;8.50;1.00;;;;;;5070822;28;20262;-72
2022/03/27 04:21:46;;;;;;;5.67;4.77;;;8.60;1.00;;;;;;5070627;28;20209;-71
2022/03/27 04:24:13;;;;;;;5.50;5.00;;;8.60;1.00;;;;;;5070662;28;20233;-72
2022/03/27 04:26:40;;;;;;;8.47;5.40;;;8.60;1.00;;;;;;5070160;28;20669;-72
2022/03/27 04:29:10;;;;;;;7.40;5.40;;;8.50;1.00;;;;;;5070717;28;20206;-72
2022/03/27 04:31:39;;;;;;;6.67;5.13;;;8.50;1.00;;;;;;5070122;28;20259;-72
2022/03/27 04:34:06;;;;;;;8.93;4.83;;;8.50;1.00;;;;;;5071013;28;20209;-72
2022/03/27 04:36:33;;;;;;;10.40;5.27;;;8.60;1.00;;;;;;5070652;28;20202;-72
2022/03/27 04:39:01;;;;;;;6.47;3.87;;;8.50;1.00;;;;;;5070816;28;20206;-72
2022/03/27 04:41:27;;;;;;;7.67;4.40;;;8.70;1.00;;;;;;5073148;28;20259;-72
2022/03/27 04:43:54;;;;;;;9.37;5.40;;;8.60;1.00;;;;;;5074144;28;20233;-72
2022/03/27 04:46:21;;;;;;;8.40;5.57;;;8.50;1.00;;;;;;5074707;28;20206;-73
2022/03/27 04:48:50;;;;;;;7.27;4.63;;;8.50;1.00;;;;;;5077461;28;20210;-72
2022/03/27 04:51:17;;;;;;;7.53;4.80;;;8.40;1.00;;;;;;5089857;28;20213;-72
2022/03/27 04:53:44;;;;;;;9.43;6.13;;;8.30;1.00;;;;;;5092686;28;20207;-72
2022/03/27 04:56:11;;;;;;;10.90;9.00;;;8.20;1.00;;;;;;5092515;28;20209;-73
2022/03/27 04:58:39;;;;;;;13.93;7.37;;;8.20;1.00;;;;;;5093829;28;20201;-73
2022/03/27 05:01:06;;;;;;;9.27;7.53;;;8.30;1.00;;;;;;5094276;28;20272;-73
2022/03/27 05:03:33;;;;;;;15.83;7.40;;;8.30;1.00;;;;;;5094001;28;20742;-72
2022/03/27 05:06:02;;;;;;;11.27;6.83;;;8.10;1.00;;;;;;5094308;28;20298;-73
2022/03/27 05:08:29;;;;;;;8.40;6.23;;;8.20;1.00;;;;;;5094600;28;20213;-73
2022/03/27 05:10:56;;;;;;;8.67;6.00;;;8.40;1.00;;;;;;5094151;28;20205;-72
2022/03/27 05:13:23;;;;;;;8.33;6.43;;;8.50;1.00;;;;;;5094320;28;20205;-73
2022/03/27 05:15:54;;;;;;;12.77;6.53;;;8.30;1.00;;;;;;5093515;28;20809;-73
2022/03/27 05:18:21;;;;;;;11.73;6.63;;;8.30;1.00;;;;;;5094386;28;20207;-73
2022/03/27 05:20:48;;;;;;;9.37;7.17;;;8.30;1.00;;;;;;5093907;28;20289;-73
2022/03/27 05:23:17;;;;;;;11.50;5.80;;;8.30;1.00;;;;;;5093804;28;20226;-73
2022/03/27 05:25:45;;;;;;;10.13;5.47;;;8.40;1.00;;;;;;5093502;28;20293;-73
2022/03/27 05:28:15;;;;;;;13.17;6.67;;;8.40;1.00;;;;;;5093929;28;20237;-73
2022/03/27 05:30:43;;;;;;;8.17;5.70;;;8.40;1.00;;;;;;5093550;28;20566;-73
2022/03/27 05:33:10;;;;;;;9.50;7.87;;;8.30;1.00;;;;;;5094135;28;20213;-75
2022/03/27 05:35:38;;;;;;;12.53;9.00;;;8.20;1.00;;;;;;5089233;28;20206;-73
2022/03/27 05:38:07;;;;;;;10.57;7.17;;;8.20;1.00;;;;;;5082606;28;20208;-74
2022/03/27 05:40:35;;;;;;;17.80;9.23;;;8.10;1.00;;;;;;5081149;28;20217;-74
2022/03/27 05:43:02;;;;;;;13.77;7.40;;;8.10;1.00;;;;;;5092025;28;20255;-74
2022/03/27 05:45:30;;;;;;;8.97;7.10;;;8.10;1.00;;;;;;5094231;28;20254;-74
2022/03/27 05:47:57;;;;;;;15.47;8.47;;;8.10;1.00;;;;;;5081619;28;20208;-73
2022/03/27 05:50:25;;;;;;;11.37;8.73;;;8.10;1.00;;;;;;5093466;28;20213;-72
2022/03/27 05:52:53;;;;;;;10.60;8.67;;;8.10;1.00;;;;;;5092328;28;20209;-73
2022/03/27 05:55:22;;;;;;;14.33;7.93;;;8.10;1.00;;;;;;5093530;28;20205;-74
2022/03/27 05:57:50;;;;;;;12.73;7.20;;;8.00;1.00;;;;;;5093060;28;20201;-74
2022/03/27 06:00:21;;;;;;;11.30;7.87;;;8.20;1.00;;;;;;5093592;28;20201;-75
2022/03/27 06:02:48;;;;;;;8.70;6.60;;;8.20;1.00;;;;;;5074189;28;20234;-74
2022/03/27 06:05:17;;;;;;;7.23;5.17;;;8.20;1.00;;;;;;5073179;28;20198;-74
2022/03/27 06:07:48;;;;;;;8.10;6.37;;;8.20;1.00;;;;;;5072619;28;20198;-74
2022/03/27 06:10:19;;;;;;;8.77;5.80;;;8.40;1.00;;;;;;5073326;28;20210;-72
2022/03/27 06:12:46;;;;;;;6.47;5.17;;;8.40;1.00;;;;;;5072720;28;20206;-71
2022/03/27 06:15:15;;;;;;;12.10;5.83;;;8.50;1.00;;;;;;5073260;28;20206;-71
2022/03/27 06:17:44;;;;;;;15.67;6.20;;;8.60;1.00;;;;;;5072631;28;20202;-71
2022/03/27 06:20:13;;;;;;;8.23;6.60;;;8.70;1.00;;;;;;5072880;28;20206;-71
2022/03/27 06:22:40;;;;;;;9.77;5.60;;;8.70;1.00;;;;;;5072270;28;20202;-71
2022/03/27 06:25:09;;;;;;;9.67;5.50;;;8.80;1.00;;;;;;5072914;28;20293;-71
2022/03/27 06:27:37;;;;;;;7.87;5.70;;;8.70;1.00;;;;;;5072629;28;20301;-71
2022/03/27 06:30:06;;;;;;;11.47;6.20;;;8.80;1.00;;;;;;5072789;28;20991;-71
2022/03/27 06:32:34;;;;;;;9.77;6.40;;;8.90;1.00;;;;;;5072624;28;20202;-73
2022/03/27 06:35:01;;;;;;;9.97;5.30;;;8.90;1.00;;;;;;5072765;28;20211;-72
2022/03/27 06:37:29;;;;;;;8.10;5.70;;;9.10;1.00;;;;;;5072699;28;20677;-71
2022/03/27 06:39:56;;;;;;;11.27;5.70;;;9.10;1.00;;;;;;5072655;28;20626;-72
2022/03/27 06:42:24;;;;;;;7.60;5.50;;;9.10;1.00;;;;;;5072755;28;20202;-71
2022/03/27 06:44:51;;;;;;;9.00;5.33;;;9.20;1.00;;;;;;5072066;28;20237;-72
2022/03/27 06:47:19;;;;;;;9.63;5.60;;;9.30;1.00;;;;;;5077757;28;20262;-71
2022/03/27 06:49:48;;;;;;;12.40;6.47;;;9.40;1.00;;;;;;5085882;28;20673;-72
2022/03/27 06:52:15;;;;;;;13.20;6.43;;;9.40;1.00;;;;;;5078953;28;20242;-71
2022/03/27 06:54:42;;;;;;;9.07;6.13;;;9.50;1.00;;;;;;5076757;28;20715;-71
2022/03/27 06:57:10;;;;;;;6.20;5.47;;;9.50;1.00;;;;;;5070396;28;20210;-72
2022/03/27 07:05:09;;;;;;;10.67;6.23;;;10.10;1.00;;;;;;5071326;28;20271;-72
2022/03/27 07:07:37;;;;;;;10.70;7.33;;;10.20;1.00;;;;;;5071615;28;20285;-72
2022/03/27 07:10:04;;;;;;;8.63;5.80;;;10.10;1.00;;;;;;5071941;28;20256;-72
2022/03/27 07:12:31;;;;;;;5.63;5.03;;;10.10;1.00;;;;;;5072360;28;20628;-72
2022/03/27 07:14:58;;;;;;;8.67;6.57;;;10.30;1.00;;;;;;5072366;28;20202;-72
2022/03/27 07:17:25;;;;;;;10.30;6.03;;;10.40;1.00;;;;;;5072316;28;20198;-72
2022/03/27 07:19:53;;;;;;;10.70;6.00;;;10.50;1.00;;;;;;5070293;28;20750;-72
2022/03/27 07:22:21;;;;;;;13.47;6.67;;;10.50;1.00;;;;;;5071614;28;20214;-72
2022/03/27 07:24:48;;;;;;;13.23;6.37;;;10.60;1.00;;;;;;5071031;28;20598;-72
2022/03/27 07:27:16;;;;;;;7.63;5.93;;;10.80;1.00;;;;;;5071678;28;20661;-71
2022/03/27 07:29:43;;;;;;;7.23;5.60;;;10.80;1.00;;;;;;5071241;28;20741;-71
2022/03/27 07:32:11;;;;;;;8.60;5.83;;;10.90;1.00;;;;;;5071496;28;20259;-72
2022/03/27 07:34:38;;;;;;;8.77;5.97;;;11.20;1.00;;;;;;5070898;28;20210;-72
2022/03/27 07:37:05;;;;;;;8.63;5.10;;;11.20;1.00;;;;;;5071290;28;20206;-73
2022/03/27 07:39:34;;;;;;;9.33;6.07;;;11.20;1.00;;;;;;5071487;28;20209;-72
2022/03/27 07:42:05;;;;;;;9.87;7.50;;;11.50;1.00;;;;;;5071549;28;20287;-71
2022/03/27 07:44:32;;;;;;;9.23;5.00;;;11.60;1.00;;;;;;5071251;28;20234;-72
2022/03/27 07:46:59;;;;;;;11.43;7.10;;;11.80;1.00;;;;;;5071565;28;20202;-72
2022/03/27 07:49:26;;;;;;;8.13;6.10;;;11.90;1.00;;;;;;5071066;28;20202;-72
2022/03/27 07:51:54;;;;;;;10.13;6.37;;;12.10;1.00;;;;;;5070772;28;20634;-72
2022/03/27 07:54:22;;;;;;;7.17;6.10;;;12.00;1.00;;;;;;5071383;28;20202;-72
2022/03/27 07:56:50;;;;;;;9.30;6.57;;;12.10;1.00;;;;;;5070858;28;20285;-72
2022/03/27 07:59:17;;;;;;;11.13;7.37;;;12.20;1.00;;;;;;5071115;28;20224;-72
2022/03/27 08:01:44;;;;;;;8.93;6.43;;;12.10;1.00;;;;;;5070596;28;20209;-72
2022/03/27 08:04:11;;;;;;;13.07;7.80;;;12.20;1.00;;;;;;5070722;28;20230;-72
2022/03/27 08:06:38;;;;;;;9.80;6.30;;;12.30;1.00;;;;;;5070572;28;20206;-72
2022/03/27 08:09:06;;;;;;;6.97;6.03;;;12.30;1.00;;;;;;5070978;28;20202;-72
2022/03/27 08:11:35;;;;;;;8.27;6.33;;;12.60;1.00;;;;;;5070571;28;20601;-72
2022/03/27 08:14:04;;;;;;;8.00;5.30;;;12.70;1.00;;;;;;5070794;28;20206;-72
2022/03/27 08:16:31;;;;;;;8.88;5.55;;;13.00;1.00;;;;;;5070930;28;20202;-72
2022/03/27 08:18:57;;;;;;;7.70;6.40;;;13.00;1.00;;;;;;5070562;28;20206;-72
2022/03/27 08:21:25;;;;;;;10.60;5.77;;;12.90;1.00;;;;;;5071086;28;20206;-72
2022/03/27 08:23:51;;;;;;;7.93;5.90;;;13.10;1.00;;;;;;5070388;28;20279;-72
2022/03/27 08:29:04;;;;;;;8.43;6.97;;;13.40;1.00;;;;;;5071031;28;20251;-72
2022/03/27 08:31:32;;;;;;;10.80;6.10;;;13.50;1.00;;;;;;5070861;28;20251;-72
2022/03/27 08:33:59;;;;;;;8.25;5.43;;;13.70;1.00;;;;;;5070882;28;20202;-71
2022/03/27 08:36:27;;;;;;;10.98;6.10;;;13.80;1.00;;;;;;5070940;28;20214;-70
2022/03/27 08:38:55;;;;;;;8.50;5.72;;;14.00;1.00;;;;;;5070305;28;20206;-71
2022/03/27 08:41:24;;;;;;;7.38;4.65;;;14.20;1.00;;;;;;5070714;28;20210;-70
2022/03/27 08:43:58;;;;;;;9.07;5.68;;;14.20;1.00;;;;;;5070217;28;20321;-71
2022/03/27 08:46:28;;;;;;;8.68;4.80;;;14.70;1.00;;;;;;5070733;28;20213;-70
2022/03/27 08:48:59;;;;;;;11.43;6.78;;;14.70;1.00;;;;;;5070314;28;20201;-71
2022/03/27 08:51:34;;;;;;;11.88;6.25;;;15.00;1.00;;;;;;5070799;28;20214;-70
2022/03/27 08:54:03;;;;;;;9.10;5.95;;;15.40;1.00;;;;;;5070526;28;20209;-71
2022/03/27 08:56:32;;;;;;;8.52;5.28;;;15.30;1.00;;;;;;5070572;28;20206;-71
2022/03/27 08:59:05;;;;;;;6.93;4.82;;;15.30;1.00;;;;;;5070818;28;20666;-70
2022/03/27 09:01:33;;;;;;;19.85;5.78;;;15.50;1.00;;;;;;5070156;28;20202;-71
2022/03/27 09:04:00;;;;;;;12.60;5.13;;;15.80;1.00;;;;;;5070541;28;20230;-70
2022/03/27 09:06:27;;;;;;;9.07;4.97;;;16.00;1.00;;;;;;5070688;28;20224;-70
2022/03/27 09:08:54;;;;;;;18.27;5.80;;;16.20;1.00;;;;;;5070093;28;20198;-70
2022/03/27 09:11:22;;;;;;;9.15;5.15;;;16.50;1.00;;;;;;5070399;28;20580;-70
2022/03/27 09:13:53;;;;;;;5.88;4.78;;;16.30;1.00;;;;;;5070091;28;20260;-70
2022/03/27 09:16:21;;;;;;;7.80;5.43;;;16.20;1.00;;;;;;5070111;28;20213;-70
2022/03/27 09:18:52;;;;;;;10.95;5.78;;;16.50;1.00;;;;;;5070213;28;20202;-70
2022/03/27 09:21:21;;;;;;;8.32;6.00;;;16.80;1.00;;;;;;5070316;28;20221;-71
2022/03/27 09:23:53;;;;;;;6.88;5.65;;;17.20;1.00;;;;;;5069862;28;20693;-70
2022/03/27 09:26:21;;;;;;;8.63;6.10;;;17.50;1.00;;;;;;5070515;28;20623;-71
2022/03/27 09:28:50;;;;;;;10.05;4.95;;;18.70;1.00;;;;;;5073694;28;20202;-70
2022/03/27 09:31:28;;;;;;;7.85;5.13;;;19.10;1.00;;;;;;5073667;28;20206;-70
2022/03/27 09:33:57;;;;;;;8.70;4.13;;;18.10;1.00;;;;;;5073606;28;20201;-70
2022/03/27 09:36:27;;;;;;;14.43;5.97;;;18.20;1.00;;;;;;5073985;28;20206;-70
2022/03/27 09:38:59;;;;;;;8.05;5.03;;;18.20;1.00;;;;;;5073145;28;20620;-70
2022/03/27 09:41:35;;;;;;;9.27;4.95;;;19.10;1.00;;;;;;5073941;28;20206;-70
2022/03/27 09:44:04;;;;;;;6.10;4.32;;;19.60;1.00;;;;;;5073444;28;20225;-70
2022/03/27 09:46:48;;;;;;;9.98;5.70;;;18.90;1.00;;;;;;5073875;28;20286;-71
2022/03/27 09:49:16;;;;;;;10.48;6.20;;;18.20;1.00;;;;;;5073604;28;20255;-70
2022/03/27 09:52:09;;;;;;;7.38;5.43;;;17.70;1.00;;;;;;5073104;28;20267;-70
2022/03/27 09:54:50;;;;;;;11.02;4.95;;;17.50;1.00;;;;;;5058544;28;20290;-71
2022/03/27 09:57:20;;;;;;;10.45;5.75;;;17.40;1.00;;;;;;5073145;28;20206;-72
2022/03/27 09:59:47;;;;;;;6.65;5.72;;;17.70;1.00;;;;;;5072986;28;20255;-74
2022/03/27 10:02:19;;;;;;;9.00;5.18;;;17.60;1.00;;;;;;5073191;28;20202;-70
2022/03/27 10:04:58;;;;;;;13.85;5.28;;;17.40;1.00;;;;;;5072859;28;20233;-71
2022/03/27 10:07:26;;;;;;;11.68;6.47;;;17.40;1.00;;;;;;5073859;28;20289;-70
2022/03/27 10:09:54;;;;;;;8.65;5.53;;;17.70;1.00;;;;;;5072917;28;20249;-71
2022/03/27 10:12:27;;;;;;;9.48;5.85;;;18.10;1.00;;;;;;5073346;28;20259;-71
2022/03/27 10:14:56;;;;;;;6.75;4.53;;;18.00;1.00;;;;;;5072417;28;20734;-70
2022/03/27 10:17:26;;;;;;;7.10;5.03;;;18.60;1.00;;;;;;5073023;28;20208;-71
2022/03/27 10:19:57;;;;;;;10.65;5.30;;;18.40;1.00;;;;;;5072924;28;20354;-71
2022/03/27 10:22:28;;;;;;;9.43;5.80;;;18.60;1.00;;;;;;5072836;28;20662;-71
2022/03/27 10:24:57;;;;;;;8.70;5.53;;;18.60;1.00;;;;;;5072508;28;20241;-70
2022/03/27 10:27:24;;;;;;;8.50;4.70;;;18.60;1.00;;;;;;5072936;28;20281;-73
2022/03/27 10:29:52;;;;;;;8.20;4.90;;;18.70;1.00;;;;;;5072356;28;20206;-71
2022/03/27 10:32:20;;;;;;;11.13;5.07;;;18.80;1.00;;;;;;5072867;28;20284;-71
2022/03/27 10:34:52;;;;;;;7.97;5.07;;;19.20;1.00;;;;;;5072407;28;20259;-72
2022/03/27 10:37:32;;;;;;;8.32;4.07;;;18.70;1.00;;;;;;5072693;28;20260;-71
2022/03/27 10:40:05;;;;;;;11.23;4.72;;;18.40;1.00;;;;;;5072259;28;20615;-71
2022/03/27 10:42:40;;;;;;;5.30;3.97;;;18.70;1.00;;;;;;5072449;28;20202;-71
2022/03/27 10:45:15;;;;;;;8.02;4.85;;;18.80;1.00;;;;;;5072190;28;20636;-72
2022/03/27 10:47:42;;;;;;;12.57;6.30;;;18.80;1.00;;;;;;5072276;28;20297;-71
2022/03/27 10:50:23;;;;;;;7.53;3.78;;;18.70;1.00;;;;;;5072368;28;20214;-72
2022/03/27 10:53:12;;;;;;;10.20;4.70;;;18.80;1.00;;;;;;5071966;28;20716;-71
2022/03/27 10:55:42;;;;;;;16.55;4.70;;;18.80;1.00;;;;;;5072344;28;20202;-73
2022/03/27 10:58:34;;;;;;;8.98;5.25;;;18.50;1.00;;;;;;5072027;28;20693;-71
2022/03/27 11:01:03;;;;;;;12.32;5.28;;;18.50;1.00;;;;;;5072146;28;20202;-71
2022/03/27 11:03:48;;;;;;;14.43;4.55;;;18.90;1.00;;;;;;5072098;28;20212;-72
2022/03/27 11:06:26;;;;;;;13.15;5.18;;;19.20;1.00;;;;;;5071818;28;20770;-72
2022/03/27 11:08:58;;;;;;;11.18;4.57;;;19.30;1.00;;;;;;5071806;28;20205;-71
2022/03/27 11:12:02;;;;;;;18.85;6.63;;;19.30;1.00;;;;;;5072015;28;20206;-71
2022/03/27 11:14:59;;;;;;;10.65;4.13;;;19.20;1.00;;;;;;5072242;28;20218;-71
2022/03/27 11:18:11;;;;;;;9.75;3.78;;;19.30;1.00;;;;;;5072451;28;20206;-71
2022/03/27 11:20:48;;;;;;;14.02;5.10;;;18.90;1.00;;;;;;5071273;28;20202;-71
2022/03/27 11:23:33;;;;;;;23.33;7.43;;;19.30;1.00;;;;;;5071758;28;20202;-72
2022/03/27 11:26:03;;;;;;;19.92;5.05;;;19.40;1.00;;;;;;5071334;28;20713;-71
2022/03/27 11:28:48;;;;;;;13.80;5.22;;;19.70;1.00;;;;;;5071619;28;20202;-71
2022/03/27 11:31:25;;;;;;;10.70;4.28;;;19.50;1.00;;;;;;5071768;28;20234;-71
2022/03/27 11:34:21;;;;;;;9.73;4.90;;;19.40;1.00;;;;;;5071239;28;20212;-71
2022/03/27 11:37:13;;;;;;;10.40;4.80;;;19.70;1.00;;;;;;5071070;28;20206;-72
2022/03/27 11:39:40;;;;;;;10.82;4.53;;;20.00;1.00;;;;;;5071034;28;20635;-71
2022/03/27 11:42:39;;;;;;;9.73;4.35;;;19.80;1.00;;;;;;5071385;28;20206;-72
2022/03/27 11:45:25;;;;;;;16.77;3.90;;;20.10;1.00;;;;;;5071335;28;20705;-74
2022/03/27 11:47:54;;;;;;;10.13;5.15;;;19.60;1.00;;;;;;5071023;28;20339;-72
2022/03/27 11:50:28;;;;;;;9.07;5.38;;;19.60;1.00;;;;;;5070873;28;20222;-70
2022/03/27 11:52:55;;;;;;;13.02;4.38;;;19.80;1.00;;;;;;5076413;28;20201;-71
2022/03/27 11:55:23;;;;;;;9.52;3.67;;;19.80;1.00;;;;;;5070670;28;20593;-70
2022/03/27 11:57:55;;;;;;;7.43;3.30;;;19.90;1.00;;;;;;5077041;28;20213;-71
2022/03/27 12:00:34;;;;;;;14.20;5.93;;;20.00;1.00;;;;;;5091449;28;20205;-72
2022/03/27 12:03:03;;;;;;;9.88;3.85;;;20.10;1.00;;;;;;5091496;28;20595;-75
2022/03/27 12:05:35;;;;;;;10.77;4.45;;;20.10;1.00;;;;;;5091602;28;20229;-71
2022/03/27 12:08:02;;;;;;;10.75;3.30;;;20.20;1.00;;;;;;5073285;28;20210;-72
2022/03/27 12:10:38;;;;;;;13.05;5.18;;;20.00;1.00;;;;;;5071082;28;20578;-71
2022/03/27 12:13:08;;;;;;;11.65;4.22;;;20.30;1.00;;;;;;5070870;28;20274;-71
2022/03/27 12:15:46;;;;;;;12.15;6.15;;;20.30;1.00;;;;;;5070607;28;20272;-72
2022/03/27 12:18:14;;;;;;;10.88;3.28;;;20.30;1.00;;;;;;5074918;28;20620;-73
2022/03/27 12:20:49;;;;;;;7.47;3.58;;;20.40;1.00;;;;;;5076021;28;20209;-72
2022/03/27 12:23:25;;;;;;;7.20;3.72;;;20.40;1.00;;;;;;5084428;28;20210;-71
2022/03/27 12:26:04;;;;;;;8.68;4.00;;;20.60;1.00;;;;;;5089440;28;20237;-72
2022/03/27 12:31:21;;;;;;;8.05;2.95;;;20.90;1.00;;;;;;5064685;28;20307;-72
2022/03/27 12:33:50;;;;;;;15.88;5.07;;;20.60;1.00;;;;;;5090363;28;20209;-71
2022/03/27 12:36:16;;;;;;;13.43;3.97;;;20.70;1.00;;;;;;5086340;28;20255;-70
2022/03/27 12:38:44;;;;;;;10.10;3.75;;;20.70;1.00;;;;;;5089755;28;20567;-71
2022/03/27 12:41:12;;;;;;;12.10;4.45;;;21.10;1.00;;;;;;5090468;28;20604;-72
2022/03/27 12:43:55;;;;;;;12.20;3.75;;;21.10;1.00;;;;;;5090340;28;20266;-69
2022/03/27 12:46:23;;;;;;;10.07;3.25;;;20.70;1.00;;;;;;5090681;28;20637;-71
2022/03/27 12:49:05;;;;;;;13.35;4.43;;;20.70;1.00;;;;;;5089858;28;20213;-71
2022/03/27 12:51:33;;;;;;;10.52;4.00;;;20.80;1.00;;;;;;5090484;28;20700;-71
2022/03/27 12:54:02;;;;;;;8.65;3.30;;;20.90;1.00;;;;;;5089938;28;20213;-71
2022/03/27 12:56:30;;;;;;;10.75;3.63;;;21.20;1.00;;;;;;5091008;28;20301;-71
2022/03/27 12:58:59;;;;;;;10.13;3.75;;;21.40;1.00;;;;;;5090441;28;20263;-71
2022/03/27 13:01:26;;;;;;;12.68;4.78;;;21.40;1.00;;;;;;5091257;28;20228;-71
2022/03/27 13:04:01;;;;;;;14.15;5.85;;;21.40;1.00;;;;;;5093917;28;20205;-71
2022/03/27 13:06:36;;;;;;;7.13;2.35;;;21.10;1.00;;;;;;5094847;28;20233;-72
2022/03/27 13:09:05;;;;;;;6.45;3.55;;;21.00;1.00;;;;;;5093836;28;20209;-72
2022/03/27 13:11:39;;;;;;;13.40;4.43;;;21.10;1.00;;;;;;5091890;28;20214;-73
2022/03/27 13:14:08;;;;;;;9.43;3.45;;;21.10;1.00;;;;;;5089904;28;20212;-72
2022/03/27 13:16:36;;;;;;;9.85;4.13;;;21.20;1.00;;;;;;5093780;28;20213;-71
2022/03/27 13:19:06;;;;;;;12.18;3.78;;;20.90;1.00;;;;;;5093720;28;20209;-71
2022/03/27 13:21:35;;;;;;;11.93;4.10;;;21.20;1.00;;;;;;5093598;28;20209;-71
2022/03/27 13:24:03;;;;;;;12.18;4.03;;;21.20;1.00;;;;;;5094188;28;20210;-72